Airport Name : Portland Hillsboro

Other Name : Portland

ICAO : KHIO

IATA :

FAA : HIO

Latitude : 45.540394

Longitude : -122.949825

Country : United States

Local Date and Time : 29 Nov 2020 07:45

 

TAF (Terminal Aerodrome Forecast)

KHIO 291359Z 2914/3012 29003KT 1/4SM FG VV002 FM291500 33002KT 1/4SM FG OVC003 FM291800 00000KT 5SM BR BKN017 FM292100 09006KT P6SM SCT250 FM300900 VRB04KT 6SM -RA OVC045 FM301100 VRB04KT 6SM -RA OVC030

 

METAR (METeorological Aerodrome Report)

KHIO 291453Z 00000KT 1/4SM R13R/2400V4000FT FG VV001 02/02 A3026 RMK AO2 SLP248 T00170017 55002

KHIO 291451Z 00000KT 1/4SM R13R/2600V4000FT FG VV001 02/02 A3026 RMK AO2

KHIO 291353Z 29003KT 1/4SM R13R/2000V3000FT FG VV002 02/02 A3026 RMK AO2 SLP249 T00220022

KHIO 291344Z 31003KT 1/4SM R13R/1600V2000FT FG VV002 02/02 A3026 RMK AO2 T00220022

KHIO 291253Z AUTO 00000KT 1/4SM R13R/1600V2600FT FG VV001 03/03 A3026 RMK AO2 SLP250 T00280028

KHIO 291231Z AUTO 28004KT 1/4SM R13R/1800V2800FT FG VV002 03/03 A3027 RMK AO2 T00280028

KHIO 291220Z AUTO 31003KT 1/2SM R13R/2400V5500FT FG VV002 03/03 A3028 RMK AO2 T00280028

KHIO 291207Z AUTO 30003KT 1/4SM R13R/1800V2600FT FG VV002 03/03 A3028 RMK AO2 T00330033

KHIO 291153Z AUTO 30003KT 1/4SM R13R/1800V3000FT FG VV001 03/03 A3028 RMK AO2 SLP255 70008 T00280028 10061 20028 57012

To Charter a Jet Click here.